| time (UTC) | temp F | wind direction | speed MPH | gust MPH | rain 1hr in | rain 24hr in | rain mn in | humidity % | barometer mb |
| 20260502181206 | 73 | 0.0 | 0.0 | 0.00 | 0.00 | 0.00 | 38 | ||
| 20260502180706 | 73 | 0.0 | 0.0 | 0.00 | 0.00 | 0.00 | 39 | ||
| 20260502180206 | 74 | 0.0 | 0.0 | 0.00 | 0.00 | 0.00 | 38 | ||
| 20260502170206 | 79 | 0.0 | 0.0 | 0.00 | 0.00 | 0.00 | 33 | ||
| 20260502164206 | 80 | 0.0 | 0.0 | 0.00 | 0.00 | 0.00 | 33 | ||
| 20260502163705 | 80 | 0.0 | 0.0 | 0.00 | 0.00 | 0.00 | 34 | ||
| 20260502163206 | 80 | 0.0 | 0.0 | 0.00 | 0.00 | 0.00 | 36 | ||
| 20260502162732 | 80 | 0.0 | 0.0 | 0.00 | 0.00 | 0.00 | 36 | ||
| 20260502162207 | 80 | 0.0 | 0.0 | 0.00 | 0.00 | 0.00 | 36 | ||
| 20260502161706 | 80 | 0.0 | 0.0 | 0.00 | 0.00 | 0.00 | 36 | ||
| 20260502161206 | 81 | 0.0 | 0.0 | 0.00 | 0.00 | 0.00 | 36 | ||
| 20260502160706 | 80 | 0.0 | 0.0 | 0.00 | 0.00 | 0.00 | 37 | ||
| 20260502160207 | 81 | 0.0 | 0.0 | 0.00 | 0.00 | 0.00 | 36 | ||
| 20260502152207 | 82 | 0.0 | 0.0 | 0.00 | 0.00 | 0.00 | 37 | ||
| 20260502151723 | 82 | 0.0 | 0.0 | 0.00 | 0.00 | 0.00 | 36 | ||
| 20260502151205 | 82 | 0.0 | 0.0 | 0.00 | 0.00 | 0.00 | 36 | ||
| 20260502150705 | 82 | 0.0 | 0.0 | 0.00 | 0.00 | 0.00 | 36 | ||
| 20260502150207 | 82 | 0.0 | 0.0 | 0.00 | 0.00 | 0.00 | 37 | ||
| 20260502130706 | 82 | 0.0 | 0.0 | 0.00 | 0.00 | 0.00 | 36 | 1015.0 | |
| 20260502130206 | 82 | 0.0 | 0.0 | 0.00 | 0.00 | 0.00 | 35 | 1015.0 | |
| 20260502123704 | 83 | 0.0 | 0.0 | 0.00 | 0.00 | 0.00 | 35 | 1015.0 | |
| 20260502123206 | 83 | 0.0 | 0.0 | 0.00 | 0.00 | 0.00 | 35 | 1015.0 | |
| 20260502122706 | 82 | 0.0 | 0.0 | 0.00 | 0.00 | 0.00 | 35 | 1015.0 | |
| 20260502122228 | 82 | 0.0 | 0.0 | 0.00 | 0.00 | 0.00 | 35 | 1015.0 | |
| 20260502121705 | 82 | 0.0 | 0.0 | 0.00 | 0.00 | 0.00 | 35 | 1015.0 | |
| 20260502121206 | 82 | 0.0 | 0.0 | 0.00 | 0.00 | 0.00 | 33 | 1015.0 | |
| 20260502120706 | 83 | 0.0 | 0.0 | 0.00 | 0.00 | 0.00 | 33 | 1016.0 | |
| 20260502120205 | 83 | 0.0 | 0.0 | 0.00 | 0.00 | 0.00 | 32 | 1016.0 | |
| 20260502115705 | 83 | 0.0 | 0.0 | 0.00 | 0.00 | 0.00 | 33 | 1016.0 | |
| 20260502115206 | 83 | 0.0 | 0.0 | 0.00 | 0.00 | 0.00 | 32 | 1016.0 | |
| 20260502114706 | 83 | 0.0 | 0.0 | 0.00 | 0.00 | 0.00 | 31 | 1016.0 | |
| 20260502114207 | 83 | 0.0 | 0.0 | 0.00 | 0.00 | 0.00 | 30 | 1016.0 | |
| 20260502113706 | 83 | 0.0 | 0.0 | 0.00 | 0.00 | 0.00 | 31 | 1016.0 | |
| 20260502113206 | 83 | 0.0 | 0.0 | 0.00 | 0.00 | 0.00 | 32 | 1016.0 | |
| 20260502112706 | 83 | 0.0 | 0.0 | 0.00 | 0.00 | 0.00 | 35 | 1016.0 | |
| 20260502112206 | 83 | 0.0 | 0.0 | 0.00 | 0.00 | 0.00 | 33 | 1016.0 | |
| 20260502111715 | 82 | 0.0 | 0.0 | 0.00 | 0.00 | 0.00 | 37 | 1016.0 | |
| 20260502111226 | 82 | 0.0 | 0.0 | 0.00 | 0.00 | 0.00 | 37 | 1016.0 | |
| 20260502110706 | 82 | 0.0 | 0.0 | 0.00 | 0.00 | 0.00 | 37 | 1016.0 | |
| 20260502110207 | 81 | 0.0 | 0.0 | 0.00 | 0.00 | 0.00 | 37 | 1016.0 | |
| 20260502105706 | 81 | 0.0 | 0.0 | 0.00 | 0.00 | 0.00 | 37 | 1016.0 | |
| 20260502105206 | 80 | 0.0 | 0.0 | 0.00 | 0.00 | 0.00 | 38 | 1016.0 | |
| 20260502104707 | 80 | 0.0 | 0.0 | 0.00 | 0.00 | 0.00 | 40 | ||
| 20260502104206 | 79 | 0.0 | 0.0 | 0.00 | 0.00 | 0.00 | 40 | ||
| 20260502103705 | 79 | 0.0 | 0.0 | 0.00 | 0.00 | 0.00 | 39 | ||
| 20260502103205 | 78 | 0.0 | 0.0 | 0.00 | 0.00 | 0.00 | 43 | ||
| 20260502102727 | 78 | 0.0 | 0.0 | 0.00 | 0.00 | 0.00 | 43 | ||
| 20260502102206 | 77 | 0.0 | 0.0 | 0.00 | 0.00 | 0.00 | 42 | ||
| 20260502101706 | 77 | 0.0 | 0.0 | 0.00 | 0.00 | 0.00 | 43 | ||
| 20260502101205 | 76 | 0.0 | 0.0 | 0.00 | 0.00 | 0.00 | 44 | ||
| 20260502100705 | 75 | 0.0 | 0.0 | 0.00 | 0.00 | 0.00 | 45 | ||
| 20260502100205 | 75 | 0.0 | 0.0 | 0.00 | 0.00 | 0.00 | 46 | ||
| 20260502091206 | 67 | 0.0 | 0.0 | 0.00 | 0.00 | 0.00 | 57 | ||
| 20260502090706 | 66 | 0.0 | 0.0 | 0.00 | 0.00 | 0.00 | 58 | ||
| 20260502090229 | 65 | 0.0 | 0.0 | 0.00 | 0.00 | 0.00 | 58 | ||
| 20260502071204 | 51 | 0.0 | 0.0 | 0.00 | 0.00 | 0.00 | 69 | ||
| 20260502070705 | 51 | 0.0 | 0.0 | 0.00 | 0.00 | 0.00 | 70 | ||
| 20260502070225 | 51 | 0.0 | 0.0 | 0.00 | 0.00 | 0.00 | 70 | ||
| 20260502065706 | 50 | 0.0 | 0.0 | 0.00 | 0.00 | 0.00 | 70 | ||
| 20260502065206 | 50 | 0.0 | 0.0 | 0.00 | 0.00 | 0.00 | 70 | ||
| 20260502064706 | 50 | 0.0 | 0.0 | 0.00 | 0.00 | 0.00 | 70 | ||
| 20260502064207 | 50 | 0.0 | 0.0 | 0.00 | 0.00 | 0.00 | 70 | ||
| 20260502063706 | 49 | 0.0 | 0.0 | 0.00 | 0.00 | 0.00 | 70 | ||
| 20260502063206 | 49 | 0.0 | 0.0 | 0.00 | 0.00 | 0.00 | 71 | ||
| 20260502062706 | 49 | 0.0 | 0.0 | 0.00 | 0.00 | 0.00 | 71 | ||
| 20260502062206 | 49 | 0.0 | 0.0 | 0.00 | 0.00 | 0.00 | 72 | ||
| 20260502061706 | 48 | 0.0 | 0.0 | 0.00 | 0.00 | 0.00 | 72 | ||
| 20260502061206 | 48 | 0.0 | 0.0 | 0.00 | 0.00 | 0.00 | 72 | ||
| 20260502060706 | 47 | 0.0 | 0.0 | 0.00 | 0.00 | 0.00 | 72 | ||
| 20260502060206 | 47 | 0.0 | 0.0 | 0.00 | 0.00 | 0.00 | 73 | ||
| 20260502055706 | 47 | 0.0 | 0.0 | 0.00 | 0.00 | 0.00 | 73 | ||
| 20260502055206 | 47 | 0.0 | 0.0 | 0.00 | 0.00 | 0.00 | 73 | ||
| 20260502054706 | 46 | 0.0 | 0.0 | 0.00 | 0.00 | 0.00 | 72 | ||
| 20260502054206 | 46 | 0.0 | 0.0 | 0.00 | 0.00 | 0.00 | 72 | ||
| 20260502053706 | 45 | 0.0 | 0.0 | 0.00 | 0.00 | 0.00 | 72 | ||
| 20260502053205 | 45 | 0.0 | 0.0 | 0.00 | 0.00 | 0.00 | 73 | ||
| 20260502052705 | 44 | 0.0 | 0.0 | 0.00 | 0.00 | 0.00 | 71 | ||
| 20260502052206 | 44 | 0.0 | 0.0 | 0.00 | 0.00 | 0.00 | 72 | ||
| 20260502051705 | 44 | 0.0 | 0.0 | 0.00 | 0.00 | 0.00 | 70 | ||
| 20260502051206 | 44 | 0.0 | 0.0 | 0.00 | 0.00 | 0.00 | 71 | ||
| 20260502050706 | 44 | 0.0 | 0.0 | 0.00 | 0.00 | 0.00 | 71 | ||
| 20260502050222 | 44 | 0.0 | 0.0 | 0.00 | 0.00 | 0.00 | 69 | ||
| 20260502045706 | 44 | 0.0 | 0.0 | 0.00 | 0.00 | 0.00 | 71 | ||
| 20260502045206 | 43 | 0.0 | 0.0 | 0.00 | 0.00 | 0.00 | 70 | ||
| 20260502044706 | 43 | 0.0 | 0.0 | 0.00 | 0.00 | 0.00 | 68 | ||
| 20260502044206 | 43 | 0.0 | 0.0 | 0.00 | 0.00 | 0.00 | 68 | ||
| 20260502043706 | 43 | 0.0 | 0.0 | 0.00 | 0.00 | 0.00 | 68 | ||
| 20260502043206 | 43 | 0.0 | 0.0 | 0.00 | 0.00 | 0.00 | 68 | ||
| 20260502042735 | 43 | 0.0 | 0.0 | 0.00 | 0.00 | 0.00 | 66 | ||
| 20260502042206 | 43 | 0.0 | 0.0 | 0.00 | 0.00 | 0.00 | 65 | ||
| 20260502041707 | 43 | 0.0 | 0.0 | 0.00 | 0.00 | 0.00 | 65 | ||
| 20260502041206 | 43 | 0.0 | 0.0 | 0.00 | 0.00 | 0.00 | 65 | ||
| 20260502040706 | 44 | 0.0 | 0.0 | 0.00 | 0.00 | 0.00 | 65 | ||
| 20260502040229 | 43 | 0.0 | 0.0 | 0.00 | 0.00 | 0.00 | 65 | ||
| 20260502035705 | 43 | 0.0 | 0.0 | 0.00 | 0.00 | 0.00 | 64 | ||
| 20260502035205 | 43 | 0.0 | 0.0 | 0.00 | 0.00 | 0.00 | 65 | ||
| 20260502034735 | 44 | 0.0 | 0.0 | 0.00 | 0.00 | 0.00 | 64 | ||
| 20260502034208 | 44 | 0.0 | 0.0 | 0.00 | 0.00 | 0.00 | 65 | ||
| 20260502033707 | 44 | 0.0 | 0.0 | 0.00 | 0.00 | 0.00 | 64 | ||
| 20260502033207 | 44 | 0.0 | 0.0 | 0.00 | 0.00 | 0.00 | 64 | ||
| 20260502032707 | 44 | 0.0 | 0.0 | 0.00 | 0.00 | 0.00 | 64 | ||
| 20260502032208 | 44 | 0.0 | 0.0 | 0.00 | 0.00 | 0.00 | 63 | ||
| 20260502031707 | 44 | 0.0 | 0.0 | 0.00 | 0.00 | 0.00 | 63 | ||
| 20260502031207 | 44 | 0.0 | 0.0 | 0.00 | 0.00 | 0.00 | 63 | ||
| 20260502030706 | 44 | 0.0 | 0.0 | 0.00 | 0.00 | 0.00 | 64 | ||
| 20260502030208 | 44 | 0.0 | 0.0 | 0.00 | 0.00 | 0.00 | 62 | ||
| 20260502025706 | 44 | 0.0 | 0.0 | 0.00 | 0.00 | 0.00 | 62 | ||
| 20260502025207 | 44 | 0.0 | 0.0 | 0.00 | 0.00 | 0.00 | 62 | ||
| 20260502024704 | 44 | 0.0 | 0.0 | 0.00 | 0.00 | 0.00 | 63 | ||
| 20260502024206 | 44 | 0.0 | 0.0 | 0.00 | 0.00 | 0.00 | 62 | ||
| 20260502023706 | 44 | 0.0 | 0.0 | 0.00 | 0.00 | 0.00 | 62 | ||
| 20260502023206 | 44 | 0.0 | 0.0 | 0.00 | 0.00 | 0.00 | 62 | ||
| 20260502022706 | 44 | 0.0 | 0.0 | 0.00 | 0.00 | 0.00 | 62 | ||
| 20260502021706 | 45 | 0.0 | 0.0 | 0.00 | 0.00 | 0.00 | 60 | ||
| 20260502021210 | 45 | 0.0 | 0.0 | 0.00 | 0.00 | 0.00 | 60 | ||
| 20260502020705 | 45 | 0.0 | 0.0 | 0.00 | 0.00 | 0.00 | 60 | ||
| 20260502020206 | 45 | 0.0 | 0.0 | 0.00 | 0.00 | 0.00 | 60 | ||
| 20260502015706 | 45 | 0.0 | 0.0 | 0.00 | 0.00 | 0.00 | 61 | ||
| 20260502014206 | 46 | 0.0 | 0.0 | 0.00 | 0.00 | 0.00 | 59 | ||
| 20260502013725 | 46 | 0.0 | 0.0 | 0.00 | 0.00 | 0.00 | 58 | ||
| 20260502013206 | 46 | 0.0 | 0.0 | 0.00 | 0.00 | 0.00 | 58 | ||
| 20260502012724 | 46 | 0.0 | 0.0 | 0.00 | 0.00 | 0.00 | 58 | ||
| 20260502012206 | 46 | 0.0 | 0.0 | 0.00 | 0.00 | 0.00 | 58 | ||
| 20260502011704 | 46 | 0.0 | 0.0 | 0.00 | 0.00 | 0.00 | 58 | ||
| 20260502011205 | 46 | 0.0 | 0.0 | 0.00 | 0.00 | 0.00 | 57 | ||
| 20260502010704 | 47 | 0.0 | 0.0 | 0.00 | 0.00 | 0.00 | 57 | ||
| 20260502010206 | 47 | 0.0 | 0.0 | 0.00 | 0.00 | 0.00 | 57 | ||
| 20260502005704 | 47 | 0.0 | 0.0 | 0.00 | 0.00 | 0.00 | 57 | ||
| 20260502005205 | 47 | 0.0 | 0.0 | 0.00 | 0.00 | 0.00 | 56 | ||
| 20260502004706 | 47 | 0.0 | 0.0 | 0.00 | 0.00 | 0.00 | 56 | ||
| 20260502003706 | 47 | 0.0 | 0.0 | 0.00 | 0.00 | 0.00 | 56 | ||
| 20260502003206 | 48 | 0.0 | 0.0 | 0.00 | 0.00 | 0.00 | 56 | ||
| 20260502001706 | 48 | 0.0 | 0.0 | 0.00 | 0.00 | 0.00 | 55 | ||
| 20260502001206 | 48 | 0.0 | 0.0 | 0.00 | 0.00 | 0.00 | 54 | ||
| 20260502000206 | 49 | 0.0 | 0.0 | 0.00 | 0.00 | 0.00 | 54 | ||
| 20260501235206 | 49 | 0.0 | 0.0 | 0.00 | 0.00 | 0.00 | 53 | ||
| 20260501234706 | 49 | 0.0 | 0.0 | 0.00 | 0.00 | 0.00 | 53 | ||
| 20260501233706 | 50 | 0.0 | 0.0 | 0.00 | 0.00 | 0.00 | 52 | ||
| 20260501233206 | 50 | 0.0 | 0.0 | 0.00 | 0.00 | 0.00 | 52 | ||
| 20260501232706 | 50 | 0.0 | 0.0 | 0.00 | 0.00 | 0.00 | 51 | ||
| 20260501232206 | 50 | 0.0 | 0.0 | 0.00 | 0.00 | 0.00 | 51 | ||
| 20260501231706 | 50 | 0.0 | 0.0 | 0.00 | 0.00 | 0.00 | 51 | ||
| 20260501231231 | 50 | 0.0 | 0.0 | 0.00 | 0.00 | 0.00 | 51 | ||
| 20260501230705 | 51 | 0.0 | 0.0 | 0.00 | 0.00 | 0.00 | 50 | ||
| 20260501230206 | 51 | 0.0 | 0.0 | 0.00 | 0.00 | 0.00 | 51 | ||
| 20260501225705 | 51 | 0.0 | 0.0 | 0.00 | 0.00 | 0.00 | 49 | ||
| 20260501225205 | 51 | 0.0 | 0.0 | 0.00 | 0.00 | 0.00 | 49 | ||
| 20260501224706 | 51 | 0.0 | 0.0 | 0.00 | 0.00 | 0.00 | 48 | ||
| 20260501224205 | 51 | 0.0 | 0.0 | 0.00 | 0.00 | 0.00 | 48 | ||
| 20260501223705 | 52 | 0.0 | 0.0 | 0.00 | 0.00 | 0.00 | 48 | ||
| 20260501223205 | 52 | 0.0 | 0.0 | 0.00 | 0.00 | 0.00 | 48 | ||
| 20260501222705 | 52 | 0.0 | 0.0 | 0.00 | 0.00 | 0.00 | 48 | ||
| 20260501222206 | 52 | 0.0 | 0.0 | 0.00 | 0.00 | 0.00 | 47 | ||
| 20260501221707 | 53 | 0.0 | 0.0 | 0.00 | 0.00 | 0.00 | 46 | ||
| 20260501221205 | 53 | 0.0 | 0.0 | 0.00 | 0.00 | 0.00 | 46 | ||
| 20260501220705 | 53 | 0.0 | 0.0 | 0.00 | 0.00 | 0.00 | 45 | ||
| 20260501220206 | 53 | 0.0 | 0.0 | 0.00 | 0.00 | 0.00 | 45 | ||
| 20260501215705 | 54 | 0.0 | 0.0 | 0.00 | 0.00 | 0.00 | 44 | ||
| 20260501215205 | 54 | 0.0 | 0.0 | 0.00 | 0.00 | 0.00 | 44 | ||
| 20260501214706 | 54 | 0.0 | 0.0 | 0.00 | 0.00 | 0.00 | 43 | ||
| 20260501214206 | 54 | 0.0 | 0.0 | 0.00 | 0.00 | 0.00 | 42 | ||
| 20260501213704 | 55 | 0.0 | 0.0 | 0.00 | 0.00 | 0.00 | 42 | ||
| 20260501213205 | 55 | 0.0 | 0.0 | 0.00 | 0.00 | 0.00 | 42 | ||
| 20260501212705 | 55 | 0.0 | 0.0 | 0.00 | 0.00 | 0.00 | 41 | ||
| 20260501212207 | 55 | 0.0 | 0.0 | 0.00 | 0.00 | 0.00 | 41 | ||
| 20260501211706 | 56 | 0.0 | 0.0 | 0.00 | 0.00 | 0.00 | 41 | ||
| 20260501211205 | 56 | 0.0 | 0.0 | 0.00 | 0.00 | 0.00 | 40 | ||
| 20260501210727 | 56 | 0.0 | 0.0 | 0.00 | 0.00 | 0.00 | 40 | ||
| 20260501210224 | 57 | 0.0 | 0.0 | 0.00 | 0.00 | 0.00 | 40 | ||
| 20260501205706 | 57 | 0.0 | 0.0 | 0.00 | 0.00 | 0.00 | 39 | ||
| 20260501205206 | 57 | 0.0 | 0.0 | 0.00 | 0.00 | 0.00 | 38 | ||
| 20260501204707 | 58 | 0.0 | 0.0 | 0.00 | 0.00 | 0.00 | 38 | ||
| 20260501204205 | 58 | 0.0 | 0.0 | 0.00 | 0.00 | 0.00 | 38 | ||
| 20260501203704 | 58 | 0.0 | 0.0 | 0.00 | 0.00 | 0.00 | 38 | ||
| 20260501203205 | 58 | 0.0 | 0.0 | 0.00 | 0.00 | 0.00 | 38 | ||
| 20260501202705 | 59 | 0.0 | 0.0 | 0.00 | 0.00 | 0.00 | 38 | ||
| 20260501202206 | 59 | 0.0 | 0.0 | 0.00 | 0.00 | 0.00 | 37 | ||
| 20260501201706 | 60 | 0.0 | 0.0 | 0.00 | 0.00 | 0.00 | 36 | ||
| 20260501201206 | 60 | 0.0 | 0.0 | 0.00 | 0.00 | 0.00 | 36 | ||
| 20260501200706 | 60 | 0.0 | 0.0 | 0.00 | 0.00 | 0.00 | 36 | ||
| 20260501200206 | 61 | 0.0 | 0.0 | 0.00 | 0.00 | 0.00 | 36 | ||
| 20260501195704 | 61 | 0.0 | 0.0 | 0.00 | 0.00 | 0.00 | 35 | ||
| 20260501195205 | 62 | 0.0 | 0.0 | 0.00 | 0.00 | 0.00 | 36 | ||
| 20260501194706 | 62 | 0.0 | 0.0 | 0.00 | 0.00 | 0.00 | 34 | ||
| 20260501194206 | 63 | 0.0 | 0.0 | 0.00 | 0.00 | 0.00 | 34 | ||
| 20260501193705 | 63 | 0.0 | 0.0 | 0.00 | 0.00 | 0.00 | 33 | ||
| 20260501193206 | 64 | 0.0 | 0.0 | 0.00 | 0.00 | 0.00 | 32 | ||
| 20260501192706 | 64 | 0.0 | 0.0 | 0.00 | 0.00 | 0.00 | 31 | ||
| 20260501192206 | 65 | 0.0 | 0.0 | 0.00 | 0.00 | 0.00 | 31 | ||
| 20260501191704 | 65 | 0.0 | 0.0 | 0.00 | 0.00 | 0.00 | 31 | ||
| 20260501191205 | 66 | 0.0 | 0.0 | 0.00 | 0.00 | 0.00 | 31 | ||
| 20260501190704 | 66 | 0.0 | 0.0 | 0.00 | 0.00 | 0.00 | 31 | ||
| 20260501190206 | 67 | 0.0 | 0.0 | 0.00 | 0.00 | 0.00 | 29 | ||
| 20260501185706 | 68 | 0.0 | 0.0 | 0.00 | 0.00 | 0.00 | 29 | ||
| 20260501185206 | 68 | 0.0 | 0.0 | 0.00 | 0.00 | 0.00 | 29 | ||
| 20260501184707 | 69 | 0.0 | 0.0 | 0.00 | 0.00 | 0.00 | 29 | ||
| 20260501184205 | 69 | 0.0 | 0.0 | 0.00 | 0.00 | 0.00 | 28 | ||
| 20260501183706 | 70 | 0.0 | 0.0 | 0.00 | 0.00 | 0.00 | 28 | ||
| 20260501183206 | 70 | 0.0 | 0.0 | 0.00 | 0.00 | 0.00 | 28 | ||
| 20260501182706 | 70 | 0.0 | 0.0 | 0.00 | 0.00 | 0.00 | 27 | ||
| 20260501182207 | 71 | 0.0 | 0.0 | 0.00 | 0.00 | 0.00 | 27 | ||
| 20260501181705 | 71 | 0.0 | 0.0 | 0.00 | 0.00 | 0.00 | 27 |